sensor_id;sensor_type;location;lat;lon;timestamp;pressure;altitude;pressure_sealevel;temperature;humidity
46718;BME280;32448;44.960;-0.698;2022-07-25T00:00:37;101341.84;;;22.43;100.00
46718;BME280;32448;44.960;-0.698;2022-07-25T00:03:02;101342.88;;;22.37;100.00
46718;BME280;32448;44.960;-0.698;2022-07-25T00:05:28;101342.81;;;22.40;100.00
46718;BME280;32448;44.960;-0.698;2022-07-25T00:07:54;101357.78;;;22.44;100.00
46718;BME280;32448;44.960;-0.698;2022-07-25T00:10:21;101338.59;;;22.30;100.00
46718;BME280;32448;44.960;-0.698;2022-07-25T00:12:47;101344.88;;;22.28;100.00
46718;BME280;32448;44.960;-0.698;2022-07-25T00:15:12;101353.84;;;22.22;100.00
46718;BME280;32448;44.960;-0.698;2022-07-25T00:17:38;101362.72;;;22.23;100.00
46718;BME280;32448;44.960;-0.698;2022-07-25T00:20:05;101360.16;;;22.20;100.00
46718;BME280;32448;44.960;-0.698;2022-07-25T00:22:31;101369.97;;;22.16;100.00
46718;BME280;32448;44.960;-0.698;2022-07-25T00:24:57;101361.22;;;22.09;100.00
46718;BME280;32448;44.960;-0.698;2022-07-25T00:27:23;101366.66;;;22.05;100.00
46718;BME280;32448;44.960;-0.698;2022-07-25T00:29:49;101358.78;;;21.99;100.00
46718;BME280;32448;44.960;-0.698;2022-07-25T00:32:15;101367.50;;;22.08;100.00
46718;BME280;32448;44.960;-0.698;2022-07-25T00:34:41;101357.78;;;22.06;100.00
46718;BME280;32448;44.960;-0.698;2022-07-25T00:37:07;101363.88;;;22.09;100.00
46718;BME280;32448;44.960;-0.698;2022-07-25T00:39:33;101367.41;;;22.11;100.00
46718;BME280;32448;44.960;-0.698;2022-07-25T00:41:59;101366.63;;;22.08;100.00
46718;BME280;32448;44.960;-0.698;2022-07-25T00:44:29;101366.66;;;22.05;100.00
46718;BME280;32448;44.960;-0.698;2022-07-25T00:46:56;101379.06;;;22.06;100.00
46718;BME280;32448;44.960;-0.698;2022-07-25T00:49:25;101382.66;;;22.03;100.00
46718;BME280;32448;44.960;-0.698;2022-07-25T00:51:52;101390.59;;;22.06;100.00
46718;BME280;32448;44.960;-0.698;2022-07-25T00:54:19;101387.06;;;22.06;100.00
46718;BME280;32448;44.960;-0.698;2022-07-25T00:56:46;101376.44;;;22.04;100.00
46718;BME280;32448;44.960;-0.698;2022-07-25T00:59:12;101388.94;;;21.99;100.00
46718;BME280;32448;44.960;-0.698;2022-07-25T01:01:38;101386.38;;;21.95;100.00
46718;BME280;32448;44.960;-0.698;2022-07-25T01:04:04;101393.44;;;21.97;100.00
46718;BME280;32448;44.960;-0.698;2022-07-25T01:06:30;101399.66;;;21.96;100.00
46718;BME280;32448;44.960;-0.698;2022-07-25T01:08:56;101396.16;;;21.93;100.00
46718;BME280;32448;44.960;-0.698;2022-07-25T01:11:23;101391.78;;;21.90;100.00
46718;BME280;32448;44.960;-0.698;2022-07-25T01:13:49;101399.88;;;21.86;100.00
46718;BME280;32448;44.960;-0.698;2022-07-25T01:16:15;101393.72;;;21.82;100.00
46718;BME280;32448;44.960;-0.698;2022-07-25T01:18:40;101391.91;;;21.84;100.00
46718;BME280;32448;44.960;-0.698;2022-07-25T01:21:06;101393.94;;;21.70;100.00
46718;BME280;32448;44.960;-0.698;2022-07-25T01:23:32;101387.72;;;21.71;100.00
46718;BME280;32448;44.960;-0.698;2022-07-25T01:25:57;101385.09;;;21.69;100.00
46718;BME280;32448;44.960;-0.698;2022-07-25T01:28:23;101394.16;;;21.58;100.00
46718;BME280;32448;44.960;-0.698;2022-07-25T01:30:49;101389.69;;;21.61;100.00
46718;BME280;32448;44.960;-0.698;2022-07-25T01:33:18;101399.44;;;21.61;100.00
46718;BME280;32448;44.960;-0.698;2022-07-25T01:35:45;101399.44;;;21.61;100.00
46718;BME280;32448;44.960;-0.698;2022-07-25T01:38:11;101400.34;;;21.60;100.00
46718;BME280;32448;44.960;-0.698;2022-07-25T01:40:37;101390.75;;;21.53;100.00
46718;BME280;32448;44.960;-0.698;2022-07-25T01:43:03;101387.22;;;21.51;100.00
46718;BME280;32448;44.960;-0.698;2022-07-25T01:45:29;101392.44;;;21.55;100.00
46718;BME280;32448;44.960;-0.698;2022-07-25T01:47:54;101403.13;;;21.54;100.00
46718;BME280;32448;44.960;-0.698;2022-07-25T01:50:20;101413.69;;;21.57;100.00
46718;BME280;32448;44.960;-0.698;2022-07-25T01:52:47;101426.09;;;21.58;100.00
46718;BME280;32448;44.960;-0.698;2022-07-25T01:55:13;101429.66;;;21.57;100.00
46718;BME280;32448;44.960;-0.698;2022-07-25T01:57:39;101416.44;;;21.54;100.00
46718;BME280;32448;44.960;-0.698;2022-07-25T02:00:09;101408.47;;;21.52;100.00
46718;BME280;32448;44.960;-0.698;2022-07-25T02:02:35;101430.38;;;21.66;100.00
46718;BME280;32448;44.960;-0.698;2022-07-25T02:05:00;101425.13;;;21.63;100.00
46718;BME280;32448;44.960;-0.698;2022-07-25T02:07:26;101427.72;;;21.66;100.00
46718;BME280;32448;44.960;-0.698;2022-07-25T02:09:52;101425.09;;;21.65;100.00
46718;BME280;32448;44.960;-0.698;2022-07-25T02:12:18;101422.44;;;21.65;100.00
46718;BME280;32448;44.960;-0.698;2022-07-25T02:14:44;101432.13;;;21.67;100.00
46718;BME280;32448;44.960;-0.698;2022-07-25T02:17:10;101421.75;;;21.54;100.00
46718;BME280;32448;44.960;-0.698;2022-07-25T02:19:36;101428.66;;;21.64;100.00
46718;BME280;32448;44.960;-0.698;2022-07-25T02:22:02;101433.09;;;21.65;100.00
46718;BME280;32448;44.960;-0.698;2022-07-25T02:24:27;101432.19;;;21.64;100.00
46718;BME280;32448;44.960;-0.698;2022-07-25T02:26:53;101426.88;;;21.64;100.00
46718;BME280;32448;44.960;-0.698;2022-07-25T02:29:19;101425.91;;;21.67;100.00
46718;BME280;32448;44.960;-0.698;2022-07-25T02:31:45;101425.84;;;21.73;100.00
46718;BME280;32448;44.960;-0.698;2022-07-25T02:34:11;101432.81;;;21.77;100.00
46718;BME280;32448;44.960;-0.698;2022-07-25T02:36:37;101431.94;;;21.78;100.00
46718;BME280;32448;44.960;-0.698;2022-07-25T02:39:03;101428.50;;;21.73;100.00
46718;BME280;32448;44.960;-0.698;2022-07-25T02:41:28;101435.41;;;21.82;100.00
46718;BME280;32448;44.960;-0.698;2022-07-25T02:43:54;101435.44;;;21.80;100.00
46718;BME280;32448;44.960;-0.698;2022-07-25T02:46:19;101434.63;;;21.76;100.00
46718;BME280;32448;44.960;-0.698;2022-07-25T02:48:45;101437.22;;;21.79;100.00
46718;BME280;32448;44.960;-0.698;2022-07-25T02:51:12;101436.31;;;21.80;100.00
46718;BME280;32448;44.960;-0.698;2022-07-25T02:53:37;101436.31;;;21.80;100.00
46718;BME280;32448;44.960;-0.698;2022-07-25T02:56:03;101444.22;;;21.85;100.00
46718;BME280;32448;44.960;-0.698;2022-07-25T02:58:29;101443.38;;;21.83;100.00
46718;BME280;32448;44.960;-0.698;2022-07-25T03:00:55;101438.06;;;21.83;100.00
46718;BME280;32448;44.960;-0.698;2022-07-25T03:03:20;101446.06;;;21.82;100.00
46718;BME280;32448;44.960;-0.698;2022-07-25T03:05:46;101441.63;;;21.82;100.00
46718;BME280;32448;44.960;-0.698;2022-07-25T03:08:12;101443.34;;;21.86;100.00
46718;BME280;32448;44.960;-0.698;2022-07-25T03:10:37;101445.00;;;21.90;100.00
46718;BME280;32448;44.960;-0.698;2022-07-25T03:13:03;101437.16;;;21.84;100.00
46718;BME280;32448;44.960;-0.698;2022-07-25T03:15:28;101435.41;;;21.83;100.00
46718;BME280;32448;44.960;-0.698;2022-07-25T03:17:54;101436.22;;;21.87;100.00
46718;BME280;32448;44.960;-0.698;2022-07-25T03:20:22;101430.97;;;21.82;100.00
46718;BME280;32448;44.960;-0.698;2022-07-25T03:22:48;101444.28;;;21.82;100.00
46718;BME280;32448;44.960;-0.698;2022-07-25T03:25:14;101432.78;;;21.80;100.00
46718;BME280;32448;44.960;-0.698;2022-07-25T03:27:39;101437.19;;;21.83;100.00
46718;BME280;32448;44.960;-0.698;2022-07-25T03:30:05;101451.38;;;21.83;100.00
46718;BME280;32448;44.960;-0.698;2022-07-25T03:32:31;101435.44;;;21.80;100.00
46718;BME280;32448;44.960;-0.698;2022-07-25T03:34:57;101440.72;;;21.83;100.00
46718;BME280;32448;44.960;-0.698;2022-07-25T03:37:22;101421.41;;;21.72;100.00
46718;BME280;32448;44.960;-0.698;2022-07-25T03:39:48;101435.44;;;21.80;100.00
46718;BME280;32448;44.960;-0.698;2022-07-25T03:42:14;101445.16;;;21.83;100.00
46718;BME280;32448;44.960;-0.698;2022-07-25T03:44:39;101432.88;;;21.75;100.00
46718;BME280;32448;44.960;-0.698;2022-07-25T03:47:05;101438.09;;;21.80;100.00
46718;BME280;32448;44.960;-0.698;2022-07-25T03:49:31;101453.16;;;21.81;100.00
46718;BME280;32448;44.960;-0.698;2022-07-25T03:51:56;101444.41;;;21.76;100.00
46718;BME280;32448;44.960;-0.698;2022-07-25T03:54:22;101449.63;;;21.80;100.00
46718;BME280;32448;44.960;-0.698;2022-07-25T03:56:49;101449.59;;;21.82;100.00
46718;BME280;32448;44.960;-0.698;2022-07-25T03:59:18;101426.75;;;21.70;100.00
46718;BME280;32448;44.960;-0.698;2022-07-25T04:01:46;101455.75;;;21.86;100.00
46718;BME280;32448;44.960;-0.698;2022-07-25T04:04:12;101444.31;;;21.80;100.00
46718;BME280;32448;44.960;-0.698;2022-07-25T04:06:39;101449.59;;;21.82;100.00
46718;BME280;32448;44.960;-0.698;2022-07-25T04:09:07;101454.97;;;21.79;100.00
46718;BME280;32448;44.960;-0.698;2022-07-25T04:11:33;101460.31;;;21.77;100.00
46718;BME280;32448;44.960;-0.698;2022-07-25T04:14:00;101462.97;;;21.79;100.00
46718;BME280;32448;44.960;-0.698;2022-07-25T04:16:27;101448.16;;;21.64;100.00
46718;BME280;32448;44.960;-0.698;2022-07-25T04:18:52;101462.22;;;21.72;100.00
46718;BME280;32448;44.960;-0.698;2022-07-25T04:21:18;101463.09;;;21.71;100.00
46718;BME280;32448;44.960;-0.698;2022-07-25T04:23:44;101457.75;;;21.73;100.00
46718;BME280;32448;44.960;-0.698;2022-07-25T04:26:09;101466.59;;;21.75;100.00
46718;BME280;32448;44.960;-0.698;2022-07-25T04:28:35;101469.31;;;21.72;100.00
46718;BME280;32448;44.960;-0.698;2022-07-25T04:31:01;101461.34;;;21.70;100.00
46718;BME280;32448;44.960;-0.698;2022-07-25T04:33:26;101464.00;;;21.70;100.00
46718;BME280;32448;44.960;-0.698;2022-07-25T04:35:52;101467.59;;;21.68;100.00
46718;BME280;32448;44.960;-0.698;2022-07-25T04:38:18;101482.59;;;21.73;100.00
46718;BME280;32448;44.960;-0.698;2022-07-25T04:40:43;101475.56;;;21.68;100.00
46718;BME280;32448;44.960;-0.698;2022-07-25T04:43:09;101478.16;;;21.74;100.00
46718;BME280;32448;44.960;-0.698;2022-07-25T04:45:35;101481.72;;;21.73;100.00
46718;BME280;32448;44.960;-0.698;2022-07-25T04:48:01;101473.78;;;21.68;100.00
46718;BME280;32448;44.960;-0.698;2022-07-25T04:50:27;101484.34;;;21.74;100.00
46718;BME280;32448;44.960;-0.698;2022-07-25T04:52:53;101483.41;;;21.77;100.00
46718;BME280;32448;44.960;-0.698;2022-07-25T04:55:18;101487.00;;;21.76;100.00
46718;BME280;32448;44.960;-0.698;2022-07-25T04:57:44;101486.88;;;21.80;100.00
46718;BME280;32448;44.960;-0.698;2022-07-25T05:00:12;101486.03;;;21.78;100.00
46718;BME280;32448;44.960;-0.698;2022-07-25T05:02:39;101487.91;;;21.73;100.00
46718;BME280;32448;44.960;-0.698;2022-07-25T05:05:06;101485.25;;;21.73;100.00
46718;BME280;32448;44.960;-0.698;2022-07-25T05:07:35;101491.53;;;21.69;100.00
46718;BME280;32448;44.960;-0.698;2022-07-25T05:10:02;101481.81;;;21.65;100.00
46718;BME280;32448;44.960;-0.698;2022-07-25T05:12:30;101488.13;;;21.61;100.00
46718;BME280;32448;44.960;-0.698;2022-07-25T05:14:56;101494.50;;;21.51;100.00
46718;BME280;32448;44.960;-0.698;2022-07-25T05:17:22;101493.63;;;21.51;100.00
46718;BME280;32448;44.960;-0.698;2022-07-25T05:19:47;101495.41;;;21.50;100.00
46718;BME280;32448;44.960;-0.698;2022-07-25T05:22:13;101484.03;;;21.40;100.00
46718;BME280;32448;44.960;-0.698;2022-07-25T05:24:41;101497.31;;;21.42;100.00
46718;BME280;32448;44.960;-0.698;2022-07-25T05:27:06;101498.25;;;21.38;100.00
46718;BME280;32448;44.960;-0.698;2022-07-25T05:29:33;101506.25;;;21.36;100.00
46718;BME280;32448;44.960;-0.698;2022-07-25T05:31:58;101508.97;;;21.33;100.00
46718;BME280;32448;44.960;-0.698;2022-07-25T05:34:24;101503.72;;;21.30;100.00
46718;BME280;32448;44.960;-0.698;2022-07-25T05:36:50;101516.13;;;21.31;100.00
46718;BME280;32448;44.960;-0.698;2022-07-25T05:39:15;101507.38;;;21.22;100.00
46718;BME280;32448;44.960;-0.698;2022-07-25T05:41:41;101514.44;;;21.24;100.00
46718;BME280;32448;44.960;-0.698;2022-07-25T05:44:06;101517.09;;;21.24;100.00
46718;BME280;32448;44.960;-0.698;2022-07-25T05:46:34;101508.34;;;21.15;100.00
46718;BME280;32448;44.960;-0.698;2022-07-25T05:49:00;101514.47;;;21.21;100.00
46718;BME280;32448;44.960;-0.698;2022-07-25T05:51:25;101521.50;;;21.25;100.00
46718;BME280;32448;44.960;-0.698;2022-07-25T05:53:51;101522.41;;;21.23;100.00
46718;BME280;32448;44.960;-0.698;2022-07-25T05:56:17;101521.63;;;21.16;100.00
46718;BME280;32448;44.960;-0.698;2022-07-25T05:58:42;101522.50;;;21.20;100.00
46718;BME280;32448;44.960;-0.698;2022-07-25T06:01:15;101520.59;;;21.26;100.00
46718;BME280;32448;44.960;-0.698;2022-07-25T06:03:42;101526.78;;;21.30;100.00
46718;BME280;32448;44.960;-0.698;2022-07-25T06:06:08;101531.91;;;21.40;100.00
46718;BME280;32448;44.960;-0.698;2022-07-25T06:08:38;101526.50;;;21.47;100.00
46718;BME280;32448;44.960;-0.698;2022-07-25T06:11:05;101520.28;;;21.48;100.00
46718;BME280;32448;44.960;-0.698;2022-07-25T06:13:32;101533.38;;;21.60;100.00
46718;BME280;32448;44.960;-0.698;2022-07-25T06:15:58;101532.44;;;21.64;100.00
46718;BME280;32448;44.960;-0.698;2022-07-25T06:18:25;101533.19;;;21.72;100.00
46718;BME280;32448;44.960;-0.698;2022-07-25T06:20:51;101553.44;;;21.80;100.00
46718;BME280;32448;44.960;-0.698;2022-07-25T06:23:17;101546.25;;;21.86;100.00
46718;BME280;32448;44.960;-0.698;2022-07-25T06:25:44;101554.31;;;21.81;100.00
46718;BME280;32448;44.960;-0.698;2022-07-25T06:28:11;101563.16;;;21.82;100.00
46718;BME280;32448;44.960;-0.698;2022-07-25T06:30:40;101556.84;;;21.89;100.00
46718;BME280;32448;44.960;-0.698;2022-07-25T06:33:06;101563.00;;;21.92;100.00
46718;BME280;32448;44.960;-0.698;2022-07-25T06:35:31;101554.09;;;21.95;100.00
46718;BME280;32448;44.960;-0.698;2022-07-25T06:37:57;101564.56;;;22.05;100.00
46718;BME280;32448;44.960;-0.698;2022-07-25T06:40:23;101565.50;;;22.03;100.00
46718;BME280;32448;44.960;-0.698;2022-07-25T06:42:49;101575.25;;;22.04;100.00
46718;BME280;32448;44.960;-0.698;2022-07-25T06:45:15;101572.56;;;22.05;100.00
46718;BME280;32448;44.960;-0.698;2022-07-25T06:47:41;101544.47;;;21.86;100.00
46718;BME280;32448;44.960;-0.698;2022-07-25T06:50:12;101576.84;;;22.12;100.00
46718;BME280;32448;44.960;-0.698;2022-07-25T06:52:39;101578.66;;;22.12;100.00
46718;BME280;32448;44.960;-0.698;2022-07-25T06:55:08;101580.34;;;22.18;100.00
46718;BME280;32448;44.960;-0.698;2022-07-25T06:57:35;101585.59;;;22.21;100.00
46718;BME280;32448;44.960;-0.698;2022-07-25T07:00:03;101591.50;;;22.38;100.00
46718;BME280;32448;44.960;-0.698;2022-07-25T07:02:31;101589.38;;;22.55;100.00
46718;BME280;32448;44.960;-0.698;2022-07-25T07:04:57;101585.78;;;22.58;100.00
46718;BME280;32448;44.960;-0.698;2022-07-25T07:07:22;101598.84;;;22.71;99.98
46718;BME280;32448;44.960;-0.698;2022-07-25T07:09:48;101593.44;;;22.76;98.79
46718;BME280;32448;44.960;-0.698;2022-07-25T07:12:13;101599.66;;;22.76;96.34
46718;BME280;32448;44.960;-0.698;2022-07-25T07:14:39;101596.91;;;22.81;96.79
46718;BME280;32448;44.960;-0.698;2022-07-25T07:17:06;101607.41;;;22.88;94.44
46718;BME280;32448;44.960;-0.698;2022-07-25T07:19:31;101596.50;;;22.99;94.62
46718;BME280;32448;44.960;-0.698;2022-07-25T07:21:57;101602.31;;;23.19;91.63
46718;BME280;32448;44.960;-0.698;2022-07-25T07:24:23;101608.22;;;23.32;90.65
46718;BME280;32448;44.960;-0.698;2022-07-25T07:26:48;101604.63;;;23.35;91.27
46718;BME280;32448;44.960;-0.698;2022-07-25T07:29:14;101601.06;;;23.34;89.13
46718;BME280;32448;44.960;-0.698;2022-07-25T07:31:40;101605.22;;;23.47;89.62
46718;BME280;32448;44.960;-0.698;2022-07-25T07:34:05;101611.47;;;23.46;89.03
46718;BME280;32448;44.960;-0.698;2022-07-25T07:36:31;101614.78;;;23.59;88.09
46718;BME280;32448;44.960;-0.698;2022-07-25T07:38:57;101611.03;;;23.66;86.66
46718;BME280;32448;44.960;-0.698;2022-07-25T07:41:23;101605.66;;;23.68;88.20
46718;BME280;32448;44.960;-0.698;2022-07-25T07:43:49;101608.41;;;23.65;87.36
46718;BME280;32448;44.960;-0.698;2022-07-25T07:46:15;101617.28;;;23.65;87.88
46718;BME280;32448;44.960;-0.698;2022-07-25T07:48:40;101624.41;;;23.65;86.50
46718;BME280;32448;44.960;-0.698;2022-07-25T07:51:06;101621.97;;;23.55;84.79
46718;BME280;32448;44.960;-0.698;2022-07-25T07:53:32;101626.84;;;23.35;85.96
46718;BME280;32448;44.960;-0.698;2022-07-25T07:56:16;101612.69;;;23.32;85.52
46718;BME280;32448;44.960;-0.698;2022-07-25T07:58:44;101619.13;;;23.63;85.76
46718;BME280;32448;44.960;-0.698;2022-07-25T08:01:10;101597.66;;;23.68;84.90
46718;BME280;32448;44.960;-0.698;2022-07-25T08:03:36;101613.97;;;23.92;82.30
46718;BME280;32448;44.960;-0.698;2022-07-25T08:06:02;101616.69;;;23.89;82.27
46718;BME280;32448;44.960;-0.698;2022-07-25T08:08:28;101626.50;;;23.89;80.15
46718;BME280;32448;44.960;-0.698;2022-07-25T08:10:53;101628.50;;;23.81;80.58
46718;BME280;32448;44.960;-0.698;2022-07-25T08:13:24;101628.19;;;23.93;79.86
46718;BME280;32448;44.960;-0.698;2022-07-25T08:15:53;101617.00;;;24.13;78.61
46718;BME280;32448;44.960;-0.698;2022-07-25T08:18:20;101616.38;;;24.39;78.13
46718;BME280;32448;44.960;-0.698;2022-07-25T08:20:46;101614.53;;;24.73;76.19
46718;BME280;32448;44.960;-0.698;2022-07-25T08:23:12;101619.56;;;24.84;72.77
46718;BME280;32448;44.960;-0.698;2022-07-25T08:25:38;101626.78;;;24.80;72.30
46718;BME280;32448;44.960;-0.698;2022-07-25T08:28:04;101620.97;;;24.64;72.38
46718;BME280;32448;44.960;-0.698;2022-07-25T08:30:34;101627.38;;;24.59;73.10
46718;BME280;32448;44.960;-0.698;2022-07-25T08:33:02;101620.50;;;24.50;73.27
46718;BME280;32448;44.960;-0.698;2022-07-25T08:35:29;101624.00;;;24.85;71.42
46718;BME280;32448;44.960;-0.698;2022-07-25T08:37:55;101626.84;;;25.10;68.79
46718;BME280;32448;44.960;-0.698;2022-07-25T08:40:24;101612.38;;;25.17;68.95
46718;BME280;32448;44.960;-0.698;2022-07-25T08:42:50;101618.50;;;25.50;66.60
46718;BME280;32448;44.960;-0.698;2022-07-25T08:45:17;101620.53;;;25.71;64.64
46718;BME280;32448;44.960;-0.698;2022-07-25T08:47:48;101610.56;;;26.02;64.47
46718;BME280;32448;44.960;-0.698;2022-07-25T08:50:16;101623.75;;;26.35;62.94
46718;BME280;32448;44.960;-0.698;2022-07-25T08:52:44;101602.81;;;26.46;61.05
46718;BME280;32448;44.960;-0.698;2022-07-25T08:55:15;101621.41;;;26.51;59.40
46718;BME280;32448;44.960;-0.698;2022-07-25T08:57:45;101622.88;;;26.34;59.71
46718;BME280;32448;44.960;-0.698;2022-07-25T09:00:14;101629.44;;;25.98;58.26
46718;BME280;32448;44.960;-0.698;2022-07-25T09:02:40;101617.75;;;26.28;58.78
46718;BME280;32448;44.960;-0.698;2022-07-25T09:05:06;101609.97;;;26.45;56.48
46718;BME280;32448;44.960;-0.698;2022-07-25T09:07:37;101625.91;;;26.50;56.96
46718;BME280;32448;44.960;-0.698;2022-07-25T09:10:18;101626.38;;;26.36;55.96
46718;BME280;32448;44.960;-0.698;2022-07-25T09:12:56;101613.63;;;26.43;57.21
46718;BME280;32448;44.960;-0.698;2022-07-25T09:15:34;101626.66;;;26.78;56.23
46718;BME280;32448;44.960;-0.698;2022-07-25T09:18:04;101621.09;;;26.60;57.09
46718;BME280;32448;44.960;-0.698;2022-07-25T09:20:48;101613.81;;;26.87;57.53
46718;BME280;32448;44.960;-0.698;2022-07-25T09:23:27;101601.31;;;27.10;57.93
46718;BME280;32448;44.960;-0.698;2022-07-25T09:26:23;101619.53;;;26.77;55.73
46718;BME280;32448;44.960;-0.698;2022-07-25T09:28:50;101622.78;;;26.86;56.65
46718;BME280;32448;44.960;-0.698;2022-07-25T09:31:20;101628.94;;;26.89;56.77
46718;BME280;32448;44.960;-0.698;2022-07-25T09:33:52;101613.00;;;26.84;56.04
46718;BME280;32448;44.960;-0.698;2022-07-25T09:36:21;101635.69;;;27.01;57.33
46718;BME280;32448;44.960;-0.698;2022-07-25T09:38:52;101631.31;;;26.98;57.70
46718;BME280;32448;44.960;-0.698;2022-07-25T09:41:17;101628.88;;;26.91;58.36
46718;BME280;32448;44.960;-0.698;2022-07-25T09:43:44;101638.31;;;27.02;58.12
46718;BME280;32448;44.960;-0.698;2022-07-25T09:46:11;101629.50;;;26.99;58.92
46718;BME280;32448;44.960;-0.698;2022-07-25T09:48:38;101636.81;;;26.95;57.74
46718;BME280;32448;44.960;-0.698;2022-07-25T09:51:05;101638.09;;;26.83;58.65
46718;BME280;32448;44.960;-0.698;2022-07-25T09:53:31;101640.69;;;26.85;58.62
46718;BME280;32448;44.960;-0.698;2022-07-25T09:55:57;101637.09;;;26.86;58.71
46718;BME280;32448;44.960;-0.698;2022-07-25T09:58:25;101646.31;;;26.79;59.04
46718;BME280;32448;44.960;-0.698;2022-07-25T10:00:54;101645.09;;;26.63;59.22
46718;BME280;32448;44.960;-0.698;2022-07-25T10:03:44;101653.31;;;26.83;59.09
46718;BME280;32448;44.960;-0.698;2022-07-25T10:06:21;101662.00;;;26.90;60.02
46718;BME280;32448;44.960;-0.698;2022-07-25T10:08:49;101645.78;;;26.94;60.25
46718;BME280;32448;44.960;-0.698;2022-07-25T10:11:23;101645.09;;;26.88;60.06
46718;BME280;32448;44.960;-0.698;2022-07-25T10:13:50;101664.69;;;26.65;60.41
46718;BME280;32448;44.960;-0.698;2022-07-25T10:16:19;101657.81;;;26.58;60.59
46718;BME280;32448;44.960;-0.698;2022-07-25T10:18:51;101669.97;;;26.68;59.96
46718;BME280;32448;44.960;-0.698;2022-07-25T10:21:16;101661.50;;;26.54;60.55
46718;BME280;32448;44.960;-0.698;2022-07-25T10:23:42;101665.94;;;26.55;61.84
46718;BME280;32448;44.960;-0.698;2022-07-25T10:26:10;101665.81;;;26.59;61.28
46718;BME280;32448;44.960;-0.698;2022-07-25T10:28:46;101672.00;;;26.61;61.61
46718;BME280;32448;44.960;-0.698;2022-07-25T10:31:25;101671.81;;;26.66;61.94
46718;BME280;32448;44.960;-0.698;2022-07-25T10:34:03;101682.00;;;26.56;62.18
46718;BME280;32448;44.960;-0.698;2022-07-25T10:36:49;101655.97;;;26.33;62.50
46718;BME280;32448;44.960;-0.698;2022-07-25T10:39:17;101675.47;;;26.38;63.06
46718;BME280;32448;44.960;-0.698;2022-07-25T10:41:50;101681.53;;;26.43;62.55
46718;BME280;32448;44.960;-0.698;2022-07-25T10:44:16;101678.72;;;26.48;63.82
46718;BME280;32448;44.960;-0.698;2022-07-25T10:46:44;101681.13;;;26.56;63.91
46718;BME280;32448;44.960;-0.698;2022-07-25T10:49:18;101680.63;;;26.69;62.88
46718;BME280;32448;44.960;-0.698;2022-07-25T10:51:54;101676.00;;;26.99;63.91
46718;BME280;32448;44.960;-0.698;2022-07-25T10:54:22;101668.53;;;27.07;63.42
46718;BME280;32448;44.960;-0.698;2022-07-25T10:56:55;101677.19;;;27.15;63.24
46718;BME280;32448;44.960;-0.698;2022-07-25T10:59:33;101680.97;;;27.33;63.23
46718;BME280;32448;44.960;-0.698;2022-07-25T11:02:01;101677.47;;;27.31;62.99
46718;BME280;32448;44.960;-0.698;2022-07-25T11:04:27;101674.00;;;27.51;63.38
46718;BME280;32448;44.960;-0.698;2022-07-25T11:06:52;101675.47;;;27.61;62.96
46718;BME280;32448;44.960;-0.698;2022-07-25T11:09:22;101681.06;;;27.53;62.13
46718;BME280;32448;44.960;-0.698;2022-07-25T11:11:51;101672.41;;;27.47;61.65
46718;BME280;32448;44.960;-0.698;2022-07-25T11:14:23;101654.69;;;27.65;62.22
46718;BME280;32448;44.960;-0.698;2022-07-25T11:16:51;101682.28;;;28.13;61.88
46718;BME280;32448;44.960;-0.698;2022-07-25T11:19:24;101657.44;;;28.07;61.81
46718;BME280;32448;44.960;-0.698;2022-07-25T11:21:56;101656.78;;;28.02;61.80
46718;BME280;32448;44.960;-0.698;2022-07-25T11:24:34;101677.41;;;28.01;61.54
46718;BME280;32448;44.960;-0.698;2022-07-25T11:26:59;101684.91;;;27.93;61.84
46718;BME280;32448;44.960;-0.698;2022-07-25T11:29:25;101678.06;;;27.84;62.93
46718;BME280;32448;44.960;-0.698;2022-07-25T11:32:03;101677.03;;;27.88;63.29
46718;BME280;32448;44.960;-0.698;2022-07-25T11:34:31;101678.50;;;27.96;62.80
46718;BME280;32448;44.960;-0.698;2022-07-25T11:37:00;101672.84;;;28.03;62.64
46718;BME280;32448;44.960;-0.698;2022-07-25T11:39:29;101668.72;;;28.16;62.62
46718;BME280;32448;44.960;-0.698;2022-07-25T11:42:07;101649.84;;;28.18;61.74
46718;BME280;32448;44.960;-0.698;2022-07-25T11:44:41;101671.97;;;28.24;62.11
46718;BME280;32448;44.960;-0.698;2022-07-25T11:47:19;101674.84;;;28.20;62.25
46718;BME280;32448;44.960;-0.698;2022-07-25T11:49:47;101675.22;;;28.11;61.79
46718;BME280;32448;44.960;-0.698;2022-07-25T11:52:36;101695.84;;;27.88;62.58
46718;BME280;32448;44.960;-0.698;2022-07-25T11:55:05;101677.19;;;27.62;70.26
46718;BME280;32448;44.960;-0.698;2022-07-25T11:57:32;101707.63;;;27.39;78.58
46718;BME280;32448;44.960;-0.698;2022-07-25T12:00:00;101700.47;;;27.15;82.38
46718;BME280;32448;44.960;-0.698;2022-07-25T12:02:31;101700.19;;;26.98;81.94
46718;BME280;32448;44.960;-0.698;2022-07-25T12:04:59;101703.28;;;26.86;84.34
46718;BME280;32448;44.960;-0.698;2022-07-25T12:10:11;101686.84;;;26.71;85.78
46718;BME280;32448;44.960;-0.698;2022-07-25T12:15:09;101684.63;;;26.82;84.33
46718;BME280;32448;44.960;-0.698;2022-07-25T12:17:36;101685.03;;;26.97;85.89
46718;BME280;32448;44.960;-0.698;2022-07-25T12:20:03;101676.41;;;27.12;84.22
46718;BME280;32448;44.960;-0.698;2022-07-25T12:22:29;101670.59;;;27.24;80.54
46718;BME280;32448;44.960;-0.698;2022-07-25T12:24:55;101670.81;;;27.41;78.70
46718;BME280;32448;44.960;-0.698;2022-07-25T12:27:20;101671.25;;;27.76;77.66
46718;BME280;32448;44.960;-0.698;2022-07-25T12:29:46;101663.47;;;27.92;75.65
46718;BME280;32448;44.960;-0.698;2022-07-25T12:32:13;101658.47;;;28.26;72.29
46718;BME280;32448;44.960;-0.698;2022-07-25T12:34:39;101654.97;;;28.24;70.70
46718;BME280;32448;44.960;-0.698;2022-07-25T12:37:05;101663.97;;;28.23;71.70
46718;BME280;32448;44.960;-0.698;2022-07-25T12:39:30;101660.34;;;28.24;70.04
46718;BME280;32448;44.960;-0.698;2022-07-25T12:41:57;101647.09;;;28.19;70.75